sensor_id;sensor_type;location;lat;lon;timestamp;pressure;altitude;pressure_sealevel;temperature;humidity
45255;BME280;30989;52.078;21.014;2023-05-22T00:01:14;167158.41;;;12.96;73.70
45255;BME280;30989;52.078;21.014;2023-05-22T00:03:43;167142.31;;;12.90;73.65
45255;BME280;30989;52.078;21.014;2023-05-22T00:06:09;167136.94;;;12.88;73.54
45255;BME280;30989;52.078;21.014;2023-05-22T00:08:36;167131.56;;;12.86;73.62
45255;BME280;30989;52.078;21.014;2023-05-22T00:11:02;167128.91;;;12.85;74.27
45255;BME280;30989;52.078;21.014;2023-05-22T00:13:27;167114.16;;;12.79;73.70
45255;BME280;30989;52.078;21.014;2023-05-22T00:15:53;167107.44;;;12.77;74.62
45255;BME280;30989;52.078;21.014;2023-05-22T00:18:18;167102.06;;;12.75;75.17
45255;BME280;30989;52.078;21.014;2023-05-22T00:20:44;167094.03;;;12.72;76.16
45255;BME280;30989;52.078;21.014;2023-05-22T00:23:11;167084.63;;;12.68;76.55
45255;BME280;30989;52.078;21.014;2023-05-22T00:25:37;167072.56;;;12.64;76.47
45255;BME280;30989;52.078;21.014;2023-05-22T00:28:03;167056.47;;;12.57;76.94
45255;BME280;30989;52.078;21.014;2023-05-22T00:30:29;167044.41;;;12.53;77.17
45255;BME280;30989;52.078;21.014;2023-05-22T00:32:55;167035.03;;;12.49;77.22
45255;BME280;30989;52.078;21.014;2023-05-22T00:35:21;167025.63;;;12.46;77.31
45255;BME280;30989;52.078;21.014;2023-05-22T00:37:46;167022.94;;;12.45;76.94
45255;BME280;30989;52.078;21.014;2023-05-22T00:40:12;167010.88;;;12.40;77.15
45255;BME280;30989;52.078;21.014;2023-05-22T00:42:43;166989.44;;;12.32;77.55
45255;BME280;30989;52.078;21.014;2023-05-22T00:45:10;166997.47;;;12.35;77.72
45255;BME280;30989;52.078;21.014;2023-05-22T00:47:35;166985.41;;;12.31;77.67
45255;BME280;30989;52.078;21.014;2023-05-22T00:50:02;166969.31;;;12.24;78.38
45255;BME280;30989;52.078;21.014;2023-05-22T00:52:29;166973.34;;;12.26;78.82
45255;BME280;30989;52.078;21.014;2023-05-22T00:54:54;166963.97;;;12.22;79.76
45255;BME280;30989;52.078;21.014;2023-05-22T00:57:21;166957.25;;;12.20;79.16
45255;BME280;30989;52.078;21.014;2023-05-22T00:59:47;166947.88;;;12.16;79.14
45255;BME280;30989;52.078;21.014;2023-05-22T01:02:13;166930.44;;;12.10;79.14
45255;BME280;30989;52.078;21.014;2023-05-22T01:04:45;166919.72;;;12.06;79.69
45255;BME280;30989;52.078;21.014;2023-05-22T01:07:12;166921.06;;;12.06;80.24
45255;BME280;30989;52.078;21.014;2023-05-22T01:09:38;166902.28;;;11.99;80.10
45255;BME280;30989;52.078;21.014;2023-05-22T01:15:01;166887.53;;;11.93;80.42
45255;BME280;30989;52.078;21.014;2023-05-22T01:17:38;166880.84;;;11.91;81.76
45255;BME280;30989;52.078;21.014;2023-05-22T01:20:33;166876.81;;;11.89;82.58
45255;BME280;30989;52.078;21.014;2023-05-22T01:26:17;166858.06;;;11.82;82.99
45255;BME280;30989;52.078;21.014;2023-05-22T01:28:54;166841.91;;;11.76;83.85
45255;BME280;30989;52.078;21.014;2023-05-22T01:31:29;166817.78;;;11.67;83.99
45255;BME280;30989;52.078;21.014;2023-05-22T01:33:56;166804.38;;;11.62;84.10
45255;BME280;30989;52.078;21.014;2023-05-22T01:36:25;166791.00;;;11.57;84.97
45255;BME280;30989;52.078;21.014;2023-05-22T01:38:52;166761.50;;;11.46;85.23
45255;BME280;30989;52.078;21.014;2023-05-22T01:41:19;166752.13;;;11.42;85.56
45255;BME280;30989;52.078;21.014;2023-05-22T01:43:46;166737.38;;;11.37;85.37
45255;BME280;30989;52.078;21.014;2023-05-22T01:46:11;166729.34;;;11.34;86.41
45255;BME280;30989;52.078;21.014;2023-05-22T01:48:37;166705.22;;;11.24;86.98
45255;BME280;30989;52.078;21.014;2023-05-22T01:51:08;166691.84;;;11.19;87.73
45255;BME280;30989;52.078;21.014;2023-05-22T01:53:56;166675.75;;;11.13;88.16
45255;BME280;30989;52.078;21.014;2023-05-22T01:56:24;166654.31;;;11.05;88.36
45255;BME280;30989;52.078;21.014;2023-05-22T02:01:49;166634.22;;;10.97;89.47
45255;BME280;30989;52.078;21.014;2023-05-22T02:04:18;166611.44;;;10.89;90.31
45255;BME280;30989;52.078;21.014;2023-05-22T02:06:44;166603.41;;;10.86;89.88
45255;BME280;30989;52.078;21.014;2023-05-22T02:09:11;166586.00;;;10.79;90.73
45255;BME280;30989;52.078;21.014;2023-05-22T02:11:41;166576.63;;;10.76;90.28
45255;BME280;30989;52.078;21.014;2023-05-22T02:14:06;166561.88;;;10.70;91.05
45255;BME280;30989;52.078;21.014;2023-05-22T02:16:33;166555.19;;;10.68;91.46
45255;BME280;30989;52.078;21.014;2023-05-22T02:19:00;166545.81;;;10.64;91.62
45255;BME280;30989;52.078;21.014;2023-05-22T02:21:33;166531.06;;;10.58;92.46
45255;BME280;30989;52.078;21.014;2023-05-22T02:24:00;166528.41;;;10.57;92.68
45255;BME280;30989;52.078;21.014;2023-05-22T02:26:26;166523.03;;;10.55;93.04
45255;BME280;30989;52.078;21.014;2023-05-22T02:28:52;166517.69;;;10.53;93.17
45255;BME280;30989;52.078;21.014;2023-05-22T02:31:17;166512.31;;;10.51;93.80
45255;BME280;30989;52.078;21.014;2023-05-22T02:33:43;166506.97;;;10.49;92.89
45255;BME280;30989;52.078;21.014;2023-05-22T02:36:09;166506.97;;;10.49;93.79
45255;BME280;30989;52.078;21.014;2023-05-22T02:38:35;166512.31;;;10.51;93.47
45255;BME280;30989;52.078;21.014;2023-05-22T02:41:01;166501.59;;;10.47;93.79
45255;BME280;30989;52.078;21.014;2023-05-22T02:43:27;166506.97;;;10.49;93.86
45255;BME280;30989;52.078;21.014;2023-05-22T02:45:52;166500.28;;;10.47;94.21
45255;BME280;30989;52.078;21.014;2023-05-22T02:48:18;166500.28;;;10.47;94.40
45255;BME280;30989;52.078;21.014;2023-05-22T02:50:43;166505.63;;;10.49;94.21
45255;BME280;30989;52.078;21.014;2023-05-22T02:53:09;166504.28;;;10.48;94.77
45255;BME280;30989;52.078;21.014;2023-05-22T02:55:35;166500.28;;;10.47;94.39
45255;BME280;30989;52.078;21.014;2023-05-22T02:58:01;166485.53;;;10.41;94.51
45255;BME280;30989;52.078;21.014;2023-05-22T03:00:27;166494.91;;;10.45;94.98
45255;BME280;30989;52.078;21.014;2023-05-22T03:02:53;166481.47;;;10.40;95.43
45255;BME280;30989;52.078;21.014;2023-05-22T03:05:19;166489.56;;;10.43;95.64
45255;BME280;30989;52.078;21.014;2023-05-22T03:07:44;166486.88;;;10.42;95.25
45255;BME280;30989;52.078;21.014;2023-05-22T03:10:10;166498.94;;;10.46;95.53
45255;BME280;30989;52.078;21.014;2023-05-22T03:12:35;166498.94;;;10.46;94.98
45255;BME280;30989;52.078;21.014;2023-05-22T03:15:02;166504.28;;;10.48;95.58
45255;BME280;30989;52.078;21.014;2023-05-22T03:17:28;166505.63;;;10.49;96.03
45255;BME280;30989;52.078;21.014;2023-05-22T03:19:54;166509.66;;;10.50;96.12
45255;BME280;30989;52.078;21.014;2023-05-22T03:22:19;166506.97;;;10.49;95.91
45255;BME280;30989;52.078;21.014;2023-05-22T03:24:45;166505.63;;;10.49;96.21
45255;BME280;30989;52.078;21.014;2023-05-22T03:27:13;166515.00;;;10.52;95.92
45255;BME280;30989;52.078;21.014;2023-05-22T03:29:41;166517.69;;;10.53;96.01
45255;BME280;30989;52.078;21.014;2023-05-22T03:32:07;166517.69;;;10.53;95.88
45255;BME280;30989;52.078;21.014;2023-05-22T03:34:32;166520.34;;;10.54;96.99
45255;BME280;30989;52.078;21.014;2023-05-22T03:36:59;166547.16;;;10.64;96.71
45255;BME280;30989;52.078;21.014;2023-05-22T03:39:24;166563.22;;;10.71;96.37
45255;BME280;30989;52.078;21.014;2023-05-22T03:41:55;166569.91;;;10.73;96.52
45255;BME280;30989;52.078;21.014;2023-05-22T03:44:23;166591.34;;;10.81;96.68
45255;BME280;30989;52.078;21.014;2023-05-22T03:46:48;166581.97;;;10.78;96.27
45255;BME280;30989;52.078;21.014;2023-05-22T03:49:14;166620.81;;;10.92;96.20
45255;BME280;30989;52.078;21.014;2023-05-22T03:51:39;166636.91;;;10.98;95.78
45255;BME280;30989;52.078;21.014;2023-05-22T03:54:05;166663.69;;;11.09;94.81
45255;BME280;30989;52.078;21.014;2023-05-22T03:56:30;166683.78;;;11.16;95.37
45255;BME280;30989;52.078;21.014;2023-05-22T03:58:55;166702.56;;;11.23;94.80
45255;BME280;30989;52.078;21.014;2023-05-22T04:01:21;166729.34;;;11.34;95.46
45255;BME280;30989;52.078;21.014;2023-05-22T04:03:47;166748.09;;;11.41;93.67
45255;BME280;30989;52.078;21.014;2023-05-22T04:06:13;166772.22;;;11.50;92.88
45255;BME280;30989;52.078;21.014;2023-05-22T04:08:38;166791.00;;;11.57;93.65
45255;BME280;30989;52.078;21.014;2023-05-22T04:11:04;166820.47;;;11.68;93.54
45255;BME280;30989;52.078;21.014;2023-05-22T04:13:30;166839.25;;;11.75;93.03
45255;BME280;30989;52.078;21.014;2023-05-22T04:15:55;166850.00;;;11.79;93.94
45255;BME280;30989;52.078;21.014;2023-05-22T04:18:21;166875.47;;;11.89;93.17
45255;BME280;30989;52.078;21.014;2023-05-22T04:20:47;166895.59;;;11.97;92.87
45255;BME280;30989;52.078;21.014;2023-05-22T04:23:12;166914.34;;;12.04;92.62
45255;BME280;30989;52.078;21.014;2023-05-22T04:25:38;166933.13;;;12.11;91.79
45255;BME280;30989;52.078;21.014;2023-05-22T04:28:03;166954.56;;;12.19;92.00
45255;BME280;30989;52.078;21.014;2023-05-22T04:30:30;166981.38;;;12.29;91.41
45255;BME280;30989;52.078;21.014;2023-05-22T04:32:58;167008.19;;;12.39;90.86
45255;BME280;30989;52.078;21.014;2023-05-22T04:35:24;167040.38;;;12.51;90.72
45255;BME280;30989;52.078;21.014;2023-05-22T04:37:50;167061.84;;;12.59;89.80
45255;BME280;30989;52.078;21.014;2023-05-22T04:40:16;167080.63;;;12.67;88.79
45255;BME280;30989;52.078;21.014;2023-05-22T04:42:42;167104.75;;;12.76;88.51
45255;BME280;30989;52.078;21.014;2023-05-22T04:45:08;167139.63;;;12.89;87.87
45255;BME280;30989;52.078;21.014;2023-05-22T04:47:34;167158.41;;;12.96;87.67
45255;BME280;30989;52.078;21.014;2023-05-22T04:50:05;167191.94;;;13.09;86.90
45255;BME280;30989;52.078;21.014;2023-05-22T04:52:31;167222.84;;;13.20;86.24
45255;BME280;30989;52.078;21.014;2023-05-22T04:54:57;167260.41;;;13.35;85.88
45255;BME280;30989;52.078;21.014;2023-05-22T04:57:23;167288.59;;;13.45;85.35
45255;BME280;30989;52.078;21.014;2023-05-22T04:59:52;167299.31;;;13.49;84.60
45255;BME280;30989;52.078;21.014;2023-05-22T05:02:18;167310.06;;;13.53;84.14
45255;BME280;30989;52.078;21.014;2023-05-22T05:04:44;167335.53;;;13.63;83.92
45255;BME280;30989;52.078;21.014;2023-05-22T05:07:11;167362.38;;;13.73;83.98
45255;BME280;30989;52.078;21.014;2023-05-22T05:09:37;167394.59;;;13.85;83.38
45255;BME280;30989;52.078;21.014;2023-05-22T05:12:03;167428.16;;;13.98;82.98
45255;BME280;30989;52.078;21.014;2023-05-22T05:14:28;167467.06;;;14.13;82.49
45255;BME280;30989;52.078;21.014;2023-05-22T05:16:54;167497.94;;;14.25;82.49
45255;BME280;30989;52.078;21.014;2023-05-22T05:19:21;167528.81;;;14.36;81.63
45255;BME280;30989;52.078;21.014;2023-05-22T05:21:47;167569.13;;;14.51;81.86
45255;BME280;30989;52.078;21.014;2023-05-22T05:24:15;167605.41;;;14.65;81.09
45255;BME280;30989;52.078;21.014;2023-05-22T05:26:43;167655.06;;;14.84;81.04
45255;BME280;30989;52.078;21.014;2023-05-22T05:29:08;167702.06;;;15.02;79.87
45255;BME280;30989;52.078;21.014;2023-05-22T05:31:39;167757.13;;;15.23;78.73
45255;BME280;30989;52.078;21.014;2023-05-22T05:34:09;167794.75;;;15.37;78.65
45255;BME280;30989;52.078;21.014;2023-05-22T05:36:55;167827.00;;;15.49;77.96
45255;BME280;30989;52.078;21.014;2023-05-22T05:39:21;167853.91;;;15.59;77.81
45255;BME280;30989;52.078;21.014;2023-05-22T05:41:47;167883.50;;;15.70;77.60
45255;BME280;30989;52.078;21.014;2023-05-22T05:44:12;167911.72;;;15.81;75.89
45255;BME280;30989;52.078;21.014;2023-05-22T05:46:38;167926.50;;;15.87;76.90
45255;BME280;30989;52.078;21.014;2023-05-22T05:49:07;167966.81;;;16.02;76.21
45255;BME280;30989;52.078;21.014;2023-05-22T05:51:37;167996.38;;;16.13;75.60
45255;BME280;30989;52.078;21.014;2023-05-22T05:54:04;168036.69;;;16.28;75.36
45255;BME280;30989;52.078;21.014;2023-05-22T05:56:30;168085.09;;;16.47;75.15
45255;BME280;30989;52.078;21.014;2023-05-22T05:58:55;168110.63;;;16.56;74.45
45255;BME280;30989;52.078;21.014;2023-05-22T06:01:47;168117.34;;;16.59;73.20
45255;BME280;30989;52.078;21.014;2023-05-22T06:04:19;168111.97;;;16.57;72.39
45255;BME280;30989;52.078;21.014;2023-05-22T06:06:46;168101.22;;;16.53;72.45
45255;BME280;30989;52.078;21.014;2023-05-22T06:09:14;168136.22;;;16.66;72.55
45255;BME280;30989;52.078;21.014;2023-05-22T06:12:09;168168.47;;;16.78;71.11
45255;BME280;30989;52.078;21.014;2023-05-22T06:14:42;168157.72;;;16.74;70.81
45255;BME280;30989;52.078;21.014;2023-05-22T06:17:08;168167.13;;;16.78;70.76
45255;BME280;30989;52.078;21.014;2023-05-22T06:19:35;168179.22;;;16.82;70.63
45255;BME280;30989;52.078;21.014;2023-05-22T06:22:01;168184.59;;;16.84;70.88
45255;BME280;30989;52.078;21.014;2023-05-22T06:24:27;168199.41;;;16.90;70.73
45255;BME280;30989;52.078;21.014;2023-05-22T06:26:53;168211.50;;;16.94;70.94
45255;BME280;30989;52.078;21.014;2023-05-22T06:29:18;168235.69;;;17.03;71.01
45255;BME280;30989;52.078;21.014;2023-05-22T06:31:45;168259.91;;;17.13;70.45
45255;BME280;30989;52.078;21.014;2023-05-22T06:34:11;168278.72;;;17.20;69.40
45255;BME280;30989;52.078;21.014;2023-05-22T06:36:37;168293.53;;;17.25;69.96
45255;BME280;30989;52.078;21.014;2023-05-22T06:39:03;168319.06;;;17.35;69.06
45255;BME280;30989;52.078;21.014;2023-05-22T06:41:51;168364.78;;;17.52;67.91
45255;BME280;30989;52.078;21.014;2023-05-22T06:44:17;168397.06;;;17.64;67.56
45255;BME280;30989;52.078;21.014;2023-05-22T06:46:43;168417.28;;;17.72;68.23
45255;BME280;30989;52.078;21.014;2023-05-22T06:49:15;168467.06;;;17.91;67.90
45255;BME280;30989;52.078;21.014;2023-05-22T06:51:44;168511.47;;;18.08;67.01
45255;BME280;30989;52.078;21.014;2023-05-22T06:54:14;168562.59;;;18.27;65.25
45255;BME280;30989;52.078;21.014;2023-05-22T06:56:44;168567.97;;;18.29;64.51
45255;BME280;30989;52.078;21.014;2023-05-22T06:59:14;168574.69;;;18.31;64.63
45255;BME280;30989;52.078;21.014;2023-05-22T07:01:58;168588.16;;;18.36;63.78
45255;BME280;30989;52.078;21.014;2023-05-22T07:04:41;168623.13;;;18.50;63.41
45255;BME280;30989;52.078;21.014;2023-05-22T07:07:11;168654.13;;;18.61;62.77
45255;BME280;30989;52.078;21.014;2023-05-22T07:09:37;168689.13;;;18.75;62.45
45255;BME280;30989;52.078;21.014;2023-05-22T07:12:04;168748.34;;;18.97;61.29
45255;BME280;30989;52.078;21.014;2023-05-22T07:14:30;168783.34;;;19.10;61.42
45255;BME280;30989;52.078;21.014;2023-05-22T07:16:55;168808.91;;;19.20;58.15
45255;BME280;30989;52.078;21.014;2023-05-22T07:19:25;168807.56;;;19.19;59.44
45255;BME280;30989;52.078;21.014;2023-05-22T07:21:53;168800.84;;;19.17;58.15
45255;BME280;30989;52.078;21.014;2023-05-22T07:24:20;168806.22;;;19.19;58.92
45255;BME280;30989;52.078;21.014;2023-05-22T07:26:45;168849.31;;;19.35;58.64
45255;BME280;30989;52.078;21.014;2023-05-22T07:29:12;168873.53;;;19.44;58.36
45255;BME280;30989;52.078;21.014;2023-05-22T07:31:43;168913.97;;;19.59;57.41
45255;BME280;30989;52.078;21.014;2023-05-22T07:34:09;168948.97;;;19.73;57.41
45255;BME280;30989;52.078;21.014;2023-05-22T07:36:35;168993.41;;;19.89;56.68
45255;BME280;30989;52.078;21.014;2023-05-22T07:39:01;169024.41;;;20.01;53.87
45255;BME280;30989;52.078;21.014;2023-05-22T07:41:31;169012.28;;;19.96;52.64
45255;BME280;30989;52.078;21.014;2023-05-22T07:43:56;169010.94;;;19.96;53.08
45255;BME280;30989;52.078;21.014;2023-05-22T07:46:27;169023.03;;;20.01;51.76
45255;BME280;30989;52.078;21.014;2023-05-22T07:48:58;168986.69;;;19.87;51.39
45255;BME280;30989;52.078;21.014;2023-05-22T07:51:23;168943.59;;;19.71;51.15
45255;BME280;30989;52.078;21.014;2023-05-22T07:53:50;168935.50;;;19.68;51.54
45255;BME280;30989;52.078;21.014;2023-05-22T07:56:15;168928.78;;;19.65;52.16
45255;BME280;30989;52.078;21.014;2023-05-22T07:58:43;168946.28;;;19.72;51.94
45255;BME280;30989;52.078;21.014;2023-05-22T08:01:08;168978.59;;;19.84;51.94
45255;BME280;30989;52.078;21.014;2023-05-22T08:03:34;169027.09;;;20.02;51.49
45255;BME280;30989;52.078;21.014;2023-05-22T08:05:59;169080.97;;;20.22;50.35
45255;BME280;30989;52.078;21.014;2023-05-22T08:08:24;169109.25;;;20.33;48.09
45255;BME280;30989;52.078;21.014;2023-05-22T08:10:50;169102.50;;;20.31;50.33
45255;BME280;30989;52.078;21.014;2023-05-22T08:13:17;169089.03;;;20.25;50.16
45255;BME280;30989;52.078;21.014;2023-05-22T08:15:43;169078.25;;;20.21;48.21
45255;BME280;30989;52.078;21.014;2023-05-22T08:18:08;169048.63;;;20.10;49.02
45255;BME280;30989;52.078;21.014;2023-05-22T08:20:34;169063.44;;;20.16;49.49
45255;BME280;30989;52.078;21.014;2023-05-22T08:22:59;169075.56;;;20.20;49.39
45255;BME280;30989;52.078;21.014;2023-05-22T08:25:25;169126.81;;;20.40;49.43
45255;BME280;30989;52.078;21.014;2023-05-22T08:27:50;169186.06;;;20.62;48.05
45255;BME280;30989;52.078;21.014;2023-05-22T08:30:16;169207.63;;;20.70;46.59
45255;BME280;30989;52.078;21.014;2023-05-22T08:32:41;169231.88;;;20.79;46.86
45255;BME280;30989;52.078;21.014;2023-05-22T08:35:07;169276.41;;;20.96;46.44
45255;BME280;30989;52.078;21.014;2023-05-22T08:37:32;169306.03;;;21.07;46.41
45255;BME280;30989;52.078;21.014;2023-05-22T08:39:58;169364.03;;;21.29;46.69
45255;BME280;30989;52.078;21.014;2023-05-22T08:42:23;169415.25;;;21.48;45.83
45255;BME280;30989;52.078;21.014;2023-05-22T08:44:49;169447.59;;;21.61;45.75
45255;BME280;30989;52.078;21.014;2023-05-22T08:47:15;169444.91;;;21.60;46.27
45255;BME280;30989;52.078;21.014;2023-05-22T08:49:41;169486.69;;;21.75;46.49
45255;BME280;30989;52.078;21.014;2023-05-22T08:52:12;169546.00;;;21.98;45.72
45255;BME280;30989;52.078;21.014;2023-05-22T08:54:40;169573.00;;;22.08;44.67
45255;BME280;30989;52.078;21.014;2023-05-22T08:57:09;169585.16;;;22.12;43.25
45255;BME280;30989;52.078;21.014;2023-05-22T08:59:37;169510.94;;;21.84;43.19
45255;BME280;30989;52.078;21.014;2023-05-22T09:02:04;169477.25;;;21.72;42.15
45255;BME280;30989;52.078;21.014;2023-05-22T09:04:29;169452.97;;;21.63;43.73
45255;BME280;30989;52.078;21.014;2023-05-22T09:06:55;169458.38;;;21.65;43.10
45255;BME280;30989;52.078;21.014;2023-05-22T09:09:20;169482.63;;;21.74;44.36
45255;BME280;30989;52.078;21.014;2023-05-22T09:11:46;169512.28;;;21.85;43.62
45255;BME280;30989;52.078;21.014;2023-05-22T09:14:12;169552.75;;;22.00;42.93
45255;BME280;30989;52.078;21.014;2023-05-22T09:16:48;169604.03;;;22.19;43.06
45255;BME280;30989;52.078;21.014;2023-05-22T09:19:14;169674.13;;;22.46;43.53
45255;BME280;30989;52.078;21.014;2023-05-22T09:21:40;169751.00;;;22.75;42.74
45255;BME280;30989;52.078;21.014;2023-05-22T09:24:09;169799.59;;;22.93;39.75
45255;BME280;30989;52.078;21.014;2023-05-22T09:26:37;169742.91;;;22.72;40.70
45255;BME280;30989;52.078;21.014;2023-05-22T09:29:04;169730.78;;;22.67;41.35
45255;BME280;30989;52.078;21.014;2023-05-22T09:31:30;169738.88;;;22.70;41.52
45255;BME280;30989;52.078;21.014;2023-05-22T09:33:56;169752.34;;;22.75;41.73
45255;BME280;30989;52.078;21.014;2023-05-22T09:36:30;169772.63;;;22.83;41.69
45255;BME280;30989;52.078;21.014;2023-05-22T09:38:59;169791.50;;;22.90;41.67
45255;BME280;30989;52.078;21.014;2023-05-22T09:41:24;169806.34;;;22.96;41.93
45255;BME280;30989;52.078;21.014;2023-05-22T09:43:52;169885.94;;;23.26;42.45
45255;BME280;30989;52.078;21.014;2023-05-22T09:46:17;169849.50;;;23.12;38.53
45255;BME280;30989;52.078;21.014;2023-05-22T09:48:42;169745.59;;;22.73;38.37
45255;BME280;30989;52.078;21.014;2023-05-22T09:51:09;169713.25;;;22.61;40.68
45255;BME280;30989;52.078;21.014;2023-05-22T09:53:35;169710.53;;;22.60;39.97
45255;BME280;30989;52.078;21.014;2023-05-22T09:56:05;169711.88;;;22.60;41.12
45255;BME280;30989;52.078;21.014;2023-05-22T09:58:34;169742.91;;;22.72;40.76
45255;BME280;30989;52.078;21.014;2023-05-22T10:01:02;169760.44;;;22.78;40.32
45255;BME280;30989;52.078;21.014;2023-05-22T10:03:30;169787.47;;;22.89;40.07
45255;BME280;30989;52.078;21.014;2023-05-22T10:05:57;169795.56;;;22.92;39.62
45255;BME280;30989;52.078;21.014;2023-05-22T10:08:34;169787.47;;;22.89;39.43
45255;BME280;30989;52.078;21.014;2023-05-22T10:11:01;169811.75;;;22.98;39.91
45255;BME280;30989;52.078;21.014;2023-05-22T10:13:27;169826.56;;;23.03;37.89
45255;BME280;30989;52.078;21.014;2023-05-22T10:15:54;169844.13;;;23.10;38.43
45255;BME280;30989;52.078;21.014;2023-05-22T10:18:21;169854.91;;;23.14;39.16
45255;BME280;30989;52.078;21.014;2023-05-22T10:20:47;169856.25;;;23.14;38.28
45255;BME280;30989;52.078;21.014;2023-05-22T10:23:14;169857.59;;;23.15;38.64
45255;BME280;30989;52.078;21.014;2023-05-22T10:25:44;169864.34;;;23.18;39.09
45255;BME280;30989;52.078;21.014;2023-05-22T10:28:10;169946.63;;;23.48;38.70
45255;BME280;30989;52.078;21.014;2023-05-22T10:33:44;170030.34;;;23.80;36.48
45255;BME280;30989;52.078;21.014;2023-05-22T10:41:50;170143.69;;;24.23;35.44
45255;BME280;30989;52.078;21.014;2023-05-22T10:44:16;170151.78;;;24.26;36.69
45255;BME280;30989;52.078;21.014;2023-05-22T10:46:47;170147.75;;;24.24;36.48
45255;BME280;30989;52.078;21.014;2023-05-22T10:49:19;170213.94;;;24.49;36.26
45255;BME280;30989;52.078;21.014;2023-05-22T10:51:45;170257.13;;;24.65;35.69
45255;BME280;30989;52.078;21.014;2023-05-22T10:54:10;170311.13;;;24.86;36.21
45255;BME280;30989;52.078;21.014;2023-05-22T10:56:36;170269.28;;;24.70;35.83
45255;BME280;30989;52.078;21.014;2023-05-22T10:59:03;170262.53;;;24.67;34.65
45255;BME280;30989;52.078;21.014;2023-05-22T11:01:30;170294.94;;;24.80;34.91
45255;BME280;30989;52.078;21.014;2023-05-22T11:09:25;170224.72;;;24.53;34.32
45255;BME280;30989;52.078;21.014;2023-05-22T11:15:01;170085.66;;;24.01;35.09
45255;BME280;30989;52.078;21.014;2023-05-22T11:17:31;170046.53;;;23.86;35.62
45255;BME280;30989;52.078;21.014;2023-05-22T11:22:35;169904.81;;;23.33;34.64
45255;BME280;30989;52.078;21.014;2023-05-22T11:25:13;169891.31;;;23.28;34.49
45255;BME280;30989;52.078;21.014;2023-05-22T11:27:41;169992.56;;;23.66;36.50
45255;BME280;30989;52.078;21.014;2023-05-22T11:30:08;170176.13;;;24.35;35.11
45255;BME280;30989;52.078;21.014;2023-05-22T11:32:38;170443.50;;;25.35;35.58
45255;BME280;30989;52.078;21.014;2023-05-22T11:35:04;170770.53;;;26.58;35.77
45255;BME280;30989;52.078;21.014;2023-05-22T11:37:32;171024.63;;;27.54;33.35
45255;BME280;30989;52.078;21.014;2023-05-22T11:40:01;171243.75;;;28.36;33.65
45255;BME280;30989;52.078;21.014;2023-05-22T11:42:28;171458.84;;;29.17;32.53
45255;BME280;30989;52.078;21.014;2023-05-22T11:44:54;171674.00;;;29.98;31.94
45255;BME280;30989;52.078;21.014;2023-05-22T11:47:20;171831.03;;;30.57;31.39
45255;BME280;30989;52.078;21.014;2023-05-22T11:49:45;171763.38;;;30.31;29.52
45255;BME280;30989;52.078;21.014;2023-05-22T11:52:11;171835.16;;;30.58;29.72
45255;BME280;30989;52.078;21.014;2023-05-22T11:54:37;171822.91;;;30.54;27.53
45255;BME280;30989;52.078;21.014;2023-05-22T11:57:07;171812.09;;;30.50;28.99
45255;BME280;30989;52.078;21.014;2023-05-22T11:59:32;171640.19;;;29.85;26.84
45255;BME280;30989;52.078;21.014;2023-05-22T12:01:58;171437.19;;;29.09;27.60
45255;BME280;30989;52.078;21.014;2023-05-22T12:04:24;171349.25;;;28.76;28.91
45255;BME280;30989;52.078;21.014;2023-05-22T12:06:50;171473.72;;;29.23;29.09
45255;BME280;30989;52.078;21.014;2023-05-22T12:09:15;171466.97;;;29.20;26.18
45255;BME280;30989;52.078;21.014;2023-05-22T12:11:45;171288.38;;;28.53;26.50
45255;BME280;30989;52.078;21.014;2023-05-22T12:14:11;171195.03;;;28.18;28.40
45255;BME280;30989;52.078;21.014;2023-05-22T12:16:37;171246.47;;;28.37;27.76
45255;BME280;30989;52.078;21.014;2023-05-22T12:19:10;171189.63;;;28.16;28.55
45255;BME280;30989;52.078;21.014;2023-05-22T12:21:39;171101.75;;;27.83;27.83
45255;BME280;30989;52.078;21.014;2023-05-22T12:24:08;171145.00;;;27.99;28.96
45255;BME280;30989;52.078;21.014;2023-05-22T12:26:35;171184.22;;;28.14;29.02
45255;BME280;30989;52.078;21.014;2023-05-22T12:29:02;171295.16;;;28.55;27.68
45255;BME280;30989;52.078;21.014;2023-05-22T12:31:33;171431.78;;;29.07;27.55
45255;BME280;30989;52.078;21.014;2023-05-22T12:34:02;171438.56;;;29.09;26.52
45255;BME280;30989;52.078;21.014;2023-05-22T12:38:58;171443.97;;;29.11;28.28
45255;BME280;30989;52.078;21.014;2023-05-22T12:41:23;171374.97;;;28.85;27.51
45255;BME280;30989;52.078;21.014;2023-05-22T12:43:48;171333.00;;;28.70;28.58
45255;BME280;30989;52.078;21.014;2023-05-22T12:46:14;171292.44;;;28.54;27.80
45255;BME280;30989;52.078;21.014;2023-05-22T12:48:40;171196.38;;;28.18;29.15
45255;BME280;30989;52.078;21.014;2023-05-22T12:51:05;171203.13;;;28.21;28.88
45255;BME280;30989;52.078;21.014;2023-05-22T12:53:33;171257.28;;;28.41;29.01
45255;BME280;30989;52.078;21.014;2023-05-22T12:55:59;171287.03;;;28.52;28.20
45255;BME280;30989;52.078;21.014;2023-05-22T12:58:24;171230.22;;;28.31;29.03
45255;BME280;30989;52.078;21.014;2023-05-22T13:00:49;171081.47;;;27.75;27.63
45255;BME280;30989;52.078;21.014;2023-05-22T13:03:15;170940.84;;;27.22;28.91
45255;BME280;30989;52.078;21.014;2023-05-22T13:05:41;170827.28;;;26.80;28.71
45255;BME280;30989;52.078;21.014;2023-05-22T13:08:06;170684.00;;;26.26;29.17
45255;BME280;30989;52.078;21.014;2023-05-22T13:10:32;170644.84;;;26.11;30.86
45255;BME280;30989;52.078;21.014;2023-05-22T13:12:57;170700.28;;;26.32;31.50